Allgood, Alabama
Current Conditions -  °F | °C
As of 8:15 AM on Thursday 27 Nov 2014 (Local Time) from KGAD Reporting Station
Overcast Overcast  
Wind Chill: 36°   Ceiling: 3300
Heat Index: 41°   Visibility: 10mi
Dew Point: 30°   Wind: 7mph
Humidity: 65%   Direction: 310°NW
Pressure: 30.32"   Gusts: NA
Location:  33.91°N, 86.51°W
Report Text: KGAD 271415Z 31006KT 10SM SCT024 BKN033 OVC050 05/M01 A3032 RMK AO1
Loading
Personal Weather Stations






























Interactive Weather Map New forecast layout! Learn more

10-Day Weather Forecast

Advertisements
Track Severe Weather on mobile